createdAt,value
2019-03-26T00:01:25.696Z,2.83
2019-03-26T00:04:05.702Z,3.40
2019-03-26T00:06:28.197Z,3.92
2019-03-26T00:08:58.555Z,3.45
2019-03-26T00:11:28.845Z,4.40
2019-03-26T00:13:59.204Z,3.42
2019-03-26T00:16:29.594Z,3.72
2019-03-26T00:18:59.866Z,4.47
2019-03-26T00:21:30.143Z,4.10
2019-03-26T00:24:00.517Z,4.67
2019-03-26T00:26:30.806Z,4.53
2019-03-26T00:29:01.115Z,4.05
2019-03-26T00:31:31.438Z,5.05
2019-03-26T00:34:01.806Z,4.70
2019-03-26T00:36:32.142Z,4.83
2019-03-26T00:39:02.509Z,4.90
2019-03-26T00:41:32.920Z,4.70
2019-03-26T00:44:03.188Z,4.70
2019-03-26T00:46:33.556Z,3.65
2019-03-26T00:49:03.884Z,4.35
2019-03-26T00:51:34.261Z,4.67
2019-03-26T00:54:04.642Z,5.00
2019-03-26T00:56:34.931Z,3.98
2019-03-26T00:59:05.410Z,3.95
2019-03-26T01:01:35.753Z,3.50
2019-03-26T01:04:06.221Z,4.17
2019-03-26T01:06:36.532Z,4.37
2019-03-26T01:09:07.947Z,3.98
2019-03-26T01:11:38.455Z,3.87
2019-03-26T01:14:08.867Z,3.80
2019-03-26T01:16:39.191Z,3.50
2019-03-26T01:19:09.491Z,4.00
2019-03-26T01:21:40.861Z,3.65
2019-03-26T01:24:11.161Z,3.45
2019-03-26T01:26:41.452Z,3.52
2019-03-26T01:29:11.805Z,4.33
2019-03-26T01:31:42.095Z,3.85
2019-03-26T01:34:12.411Z,4.67
2019-03-26T01:36:42.682Z,4.03
2019-03-26T01:39:12.941Z,4.72
2019-03-26T01:41:43.273Z,4.78
2019-03-26T01:44:13.536Z,4.87
2019-03-26T01:46:43.805Z,4.33
2019-03-26T01:49:14.049Z,4.00
2019-03-26T01:51:44.347Z,4.60
2019-03-26T01:54:14.647Z,5.90
2019-03-26T01:56:44.978Z,4.28
2019-03-26T01:59:15.265Z,3.33
2019-03-26T02:01:45.637Z,4.55
2019-03-26T02:04:16.237Z,3.80
2019-03-26T02:06:46.693Z,4.00
2019-03-26T02:09:18.594Z,4.97
2019-03-26T02:11:48.865Z,4.87
2019-03-26T02:14:21.990Z,4.62
2019-03-26T02:16:52.281Z,3.95
2019-03-26T02:19:25.614Z,3.70
2019-03-26T02:21:55.964Z,4.30
2019-03-26T02:24:26.213Z,4.58
2019-03-26T02:26:56.555Z,4.42
2019-03-26T02:29:26.899Z,4.45
2019-03-26T02:31:57.203Z,4.47
2019-03-26T02:34:27.507Z,4.20
2019-03-26T02:36:57.792Z,4.17
2019-03-26T02:39:29.321Z,4.75
2019-03-26T02:42:00.828Z,5.12
2019-03-26T02:44:31.194Z,4.53
2019-03-26T02:47:01.596Z,4.00
2019-03-26T02:49:33.284Z,3.80
2019-03-26T02:52:03.578Z,3.65
2019-03-26T02:54:33.860Z,4.25
2019-03-26T02:57:04.234Z,3.98
2019-03-26T02:59:34.548Z,3.47
2019-03-26T03:02:04.924Z,3.62
2019-03-26T03:04:35.157Z,4.28
2019-03-26T03:07:05.481Z,5.53
2019-03-26T03:09:35.714Z,3.92
2019-03-26T03:12:05.987Z,3.20
2019-03-26T03:14:36.248Z,4.08
2019-03-26T03:17:06.610Z,4.45
2019-03-26T03:19:36.994Z,3.12
2019-03-26T03:22:07.355Z,3.83
2019-03-26T03:24:37.726Z,3.42
2019-03-26T03:27:08.138Z,3.52
2019-03-26T03:29:38.391Z,3.80
2019-03-26T03:32:08.766Z,3.42
2019-03-26T03:34:39.104Z,3.40
2019-03-26T03:37:09.375Z,4.15
2019-03-26T03:39:39.658Z,3.50
2019-03-26T03:42:10.082Z,3.42
2019-03-26T03:44:40.454Z,3.90
2019-03-26T03:47:13.480Z,3.22
2019-03-26T03:49:44.114Z,2.52
2019-03-26T03:52:15.395Z,2.67
2019-03-26T03:54:48.514Z,2.62
2019-03-26T03:57:20.593Z,2.58
2019-03-26T03:59:51.906Z,2.70
2019-03-26T04:02:22.180Z,2.55
2019-03-26T04:04:52.481Z,2.70
2019-03-26T04:07:22.803Z,2.47
2019-03-26T04:09:53.154Z,2.40
2019-03-26T04:12:23.387Z,2.20
2019-03-26T04:14:53.651Z,2.92
2019-03-26T04:17:23.911Z,2.42
2019-03-26T04:19:54.190Z,2.80
2019-03-26T04:22:24.419Z,2.55
2019-03-26T04:24:54.674Z,2.65
2019-03-26T04:27:24.955Z,2.90
2019-03-26T04:29:55.330Z,2.30
2019-03-26T04:32:25.578Z,2.60
2019-03-26T04:34:55.835Z,2.20
2019-03-26T04:37:26.174Z,2.77
2019-03-26T04:39:56.457Z,2.50
2019-03-26T04:42:26.726Z,3.27
2019-03-26T04:44:56.996Z,3.25
2019-03-26T04:47:27.212Z,2.25
2019-03-26T04:49:57.434Z,3.05
2019-03-26T04:52:27.659Z,3.35
2019-03-26T04:54:57.920Z,3.40
2019-03-26T04:57:28.254Z,2.70
2019-03-26T04:59:58.610Z,3.72
2019-03-26T05:02:29.013Z,3.85
2019-03-26T05:04:59.326Z,3.70
2019-03-26T05:07:29.645Z,4.47
2019-03-26T05:09:59.855Z,4.05
2019-03-26T05:12:30.196Z,4.20
2019-03-26T05:15:01.565Z,3.70
2019-03-26T05:17:31.840Z,5.00
2019-03-26T05:20:02.132Z,5.78
2019-03-26T05:22:32.495Z,5.10
2019-03-26T05:25:02.818Z,5.70
2019-03-26T05:27:44.821Z,5.92
2019-03-26T05:30:06.710Z,5.85
2019-03-26T05:32:37.036Z,4.72
2019-03-26T05:35:07.840Z,6.35
2019-03-26T05:37:38.232Z,7.42
2019-03-26T05:40:09.684Z,8.13
2019-03-26T05:42:40.152Z,9.60
2019-03-26T05:45:11.060Z,6.42
2019-03-26T05:47:41.317Z,7.78
2019-03-26T05:50:12.394Z,8.05
2019-03-26T05:52:42.755Z,8.93
2019-03-26T05:55:13.244Z,7.28
2019-03-26T05:57:43.616Z,8.98
2019-03-26T06:00:21.296Z,7.60
2019-03-26T06:02:51.642Z,6.97
2019-03-26T06:05:22.051Z,7.05
2019-03-26T06:07:52.362Z,8.35
2019-03-26T06:10:22.676Z,6.47
2019-03-26T06:12:54.484Z,6.97
2019-03-26T06:15:24.712Z,7.53
2019-03-26T06:17:57.411Z,7.58
2019-03-26T06:20:26.990Z,7.15
2019-03-26T06:22:58.335Z,7.25
2019-03-26T06:25:28.661Z,7.00
2019-03-26T06:28:00.457Z,6.78
2019-03-26T06:30:30.742Z,8.18
2019-03-26T06:33:01.140Z,7.65
2019-03-26T06:35:31.466Z,7.85
2019-03-26T06:38:01.809Z,7.65
2019-03-26T06:40:32.172Z,7.40
2019-03-26T06:43:04.979Z,7.12
2019-03-26T06:45:35.462Z,6.67
2019-03-26T06:48:05.849Z,6.75
2019-03-26T06:50:40.956Z,6.25
2019-03-26T06:53:11.322Z,6.62
2019-03-26T06:55:41.745Z,5.72
2019-03-26T06:58:12.144Z,6.25
2019-03-26T07:00:42.820Z,6.90
2019-03-26T07:03:13.112Z,5.17
2019-03-26T07:05:43.448Z,5.10
2019-03-26T07:08:13.804Z,5.95
2019-03-26T07:10:44.162Z,4.97
2019-03-26T07:13:14.496Z,4.83
2019-03-26T07:15:44.820Z,5.22
2019-03-26T07:18:15.721Z,4.83
2019-03-26T07:20:46.325Z,4.95
2019-03-26T07:23:16.719Z,4.72
2019-03-26T07:25:46.927Z,4.50
2019-03-26T07:28:17.188Z,4.40
2019-03-26T07:30:48.158Z,4.25
2019-03-26T07:33:18.492Z,3.85
2019-03-26T07:35:48.808Z,4.10
2019-03-26T07:38:19.068Z,2.80
2019-03-26T07:40:49.297Z,3.47
2019-03-26T07:43:19.593Z,4.10
2019-03-26T07:45:49.907Z,4.10
2019-03-26T07:48:20.258Z,3.30
2019-03-26T07:50:50.608Z,2.80
2019-03-26T07:53:20.811Z,3.83
2019-03-26T07:55:51.178Z,2.60
2019-03-26T07:58:21.555Z,2.93
2019-03-26T08:00:51.882Z,2.90
2019-03-26T08:03:22.366Z,2.70
2019-03-26T08:05:55.032Z,3.27
2019-03-26T08:08:24.991Z,2.50
2019-03-26T08:10:55.338Z,1.93
2019-03-26T08:13:25.564Z,2.83
2019-03-26T08:15:55.879Z,2.43
2019-03-26T08:18:26.200Z,2.80
2019-03-26T08:20:57.612Z,3.43
2019-03-26T08:23:28.094Z,3.43
2019-03-26T08:25:58.382Z,2.27
2019-03-26T08:28:29.855Z,2.13
2019-03-26T08:31:00.128Z,2.50
2019-03-26T08:33:30.364Z,2.70
2019-03-26T08:36:00.622Z,3.00
2019-03-26T08:38:33.423Z,2.33
2019-03-26T08:41:02.800Z,2.40
2019-03-26T08:43:33.034Z,2.00
2019-03-26T08:46:03.596Z,1.70
2019-03-26T08:48:33.926Z,2.03
2019-03-26T08:51:04.262Z,1.63
2019-03-26T08:53:34.500Z,1.60
2019-03-26T08:56:04.897Z,1.53
2019-03-26T08:58:35.184Z,2.53
2019-03-26T09:01:05.520Z,1.40
2019-03-26T09:03:35.832Z,1.53
2019-03-26T09:06:06.166Z,3.90
2019-03-26T09:08:36.386Z,2.13
2019-03-26T09:11:06.712Z,1.80
2019-03-26T09:13:37.028Z,2.07
2019-03-26T09:16:07.288Z,1.60
2019-03-26T09:18:37.632Z,2.07
2019-03-26T09:21:07.866Z,1.50
2019-03-26T09:23:38.126Z,2.10
2019-03-26T09:26:08.456Z,1.60
2019-03-26T09:28:38.731Z,2.10
2019-03-26T09:31:09.102Z,1.93
2019-03-26T09:33:39.403Z,1.70
2019-03-26T09:36:09.707Z,1.83
2019-03-26T09:38:40.213Z,1.53
2019-03-26T09:41:10.534Z,2.83
2019-03-26T09:43:40.783Z,1.70
2019-03-26T09:46:11.082Z,1.30
2019-03-26T09:48:41.335Z,1.60
2019-03-26T09:51:11.626Z,1.17
2019-03-26T09:53:42.018Z,1.80
2019-03-26T09:56:12.302Z,2.33
2019-03-26T09:58:42.611Z,1.27
2019-03-26T10:01:12.902Z,1.50
2019-03-26T10:03:43.150Z,1.60
2019-03-26T10:06:22.798Z,1.70
2019-03-26T10:08:52.244Z,1.63
2019-03-26T10:11:17.338Z,2.03
2019-03-26T10:13:47.577Z,2.00
2019-03-26T10:16:18.358Z,1.23
2019-03-26T10:18:48.551Z,1.77
2019-03-26T10:21:18.825Z,2.10
2019-03-26T10:23:49.079Z,1.70
2019-03-26T10:26:19.367Z,2.10
2019-03-26T10:28:49.647Z,2.13
2019-03-26T10:31:19.885Z,1.93
2019-03-26T10:33:50.156Z,1.43
2019-03-26T10:36:20.516Z,1.80
2019-03-26T10:38:50.807Z,1.20
2019-03-26T10:41:21.120Z,1.20
2019-03-26T10:43:51.492Z,1.83
2019-03-26T10:46:21.726Z,2.30
2019-03-26T10:48:51.985Z,1.40
2019-03-26T10:51:22.228Z,1.53
2019-03-26T10:53:52.455Z,1.40
2019-03-26T10:56:22.688Z,1.30
2019-03-26T10:58:52.995Z,2.63
2019-03-26T11:01:23.270Z,1.90
2019-03-26T11:03:53.513Z,1.73
2019-03-26T11:06:23.792Z,1.80
2019-03-26T11:08:55.007Z,2.00
2019-03-26T11:11:25.249Z,1.53
2019-03-26T11:13:58.582Z,1.30
2019-03-26T11:16:27.470Z,1.70
2019-03-26T11:18:57.689Z,1.63
2019-03-26T11:21:27.927Z,2.27
2019-03-26T11:23:58.156Z,1.53
2019-03-26T11:26:28.803Z,1.90
2019-03-26T11:28:58.989Z,2.27
2019-03-26T11:31:30.272Z,1.20
2019-03-26T11:34:00.655Z,1.80
2019-03-26T11:36:30.876Z,1.47
2019-03-26T11:39:01.468Z,1.23
2019-03-26T11:41:31.850Z,1.37
2019-03-26T11:44:04.563Z,1.13
2019-03-26T11:46:34.042Z,1.20
2019-03-26T11:49:04.351Z,1.37
2019-03-26T11:51:34.568Z,1.43
2019-03-26T11:54:05.030Z,1.83
2019-03-26T11:56:36.422Z,2.20
2019-03-26T11:59:06.670Z,1.80
2019-03-26T12:01:36.872Z,1.70
2019-03-26T12:04:14.593Z,1.63
2019-03-26T12:06:44.848Z,1.50
2019-03-26T12:09:15.135Z,1.40
2019-03-26T12:11:45.440Z,2.20
2019-03-26T12:14:15.888Z,2.13
2019-03-26T12:16:46.107Z,2.30
2019-03-26T12:19:16.502Z,1.57
2019-03-26T12:21:46.759Z,2.67
2019-03-26T12:24:17.118Z,2.30
2019-03-26T12:26:47.437Z,2.30
2019-03-26T12:29:17.670Z,2.17
2019-03-26T12:31:48.029Z,1.87
2019-03-26T12:34:18.263Z,1.73
2019-03-26T12:36:48.510Z,1.80
2019-03-26T12:39:18.780Z,2.07
2019-03-26T12:41:49.021Z,2.10
2019-03-26T12:44:19.270Z,1.90
2019-03-26T12:46:49.806Z,2.07
2019-03-26T12:49:20.118Z,1.93
2019-03-26T12:51:50.350Z,1.97
2019-03-26T12:54:20.598Z,1.90
2019-03-26T12:56:50.857Z,1.40
2019-03-26T12:59:21.101Z,2.20
2019-03-26T13:01:51.359Z,2.30
2019-03-26T13:04:21.642Z,1.40
2019-03-26T13:06:51.904Z,2.07
2019-03-26T13:09:22.104Z,1.80
2019-03-26T13:11:52.356Z,2.67
2019-03-26T13:14:22.659Z,1.17
2019-03-26T13:16:52.891Z,0.87
2019-03-26T13:19:23.281Z,1.47
2019-03-26T13:21:53.494Z,1.50
2019-03-26T13:24:23.757Z,0.90
2019-03-26T13:26:54.040Z,1.40
2019-03-26T13:29:24.262Z,1.07
2019-03-26T13:31:54.528Z,1.30
2019-03-26T13:34:24.707Z,1.10
2019-03-26T13:36:55.094Z,2.03
2019-03-26T13:39:25.351Z,1.27
2019-03-26T13:41:55.678Z,1.27
2019-03-26T13:44:26.009Z,1.40
2019-03-26T13:46:56.442Z,1.13
2019-03-26T13:49:26.687Z,1.00
2019-03-26T13:51:56.899Z,1.10
2019-03-26T13:54:27.093Z,1.60
2019-03-26T13:56:57.370Z,1.60
2019-03-26T13:59:27.744Z,3.80
2019-03-26T14:01:58.202Z,2.30
2019-03-26T14:04:28.555Z,1.63
2019-03-26T14:06:58.770Z,1.20
2019-03-26T14:09:29.011Z,2.00
2019-03-26T14:11:59.429Z,1.40
2019-03-26T14:14:29.720Z,1.57
2019-03-26T14:17:01.042Z,1.20
2019-03-26T14:19:31.350Z,1.83
2019-03-26T14:22:02.576Z,1.90
2019-03-26T14:24:32.946Z,1.20
2019-03-26T14:27:04.259Z,1.70
2019-03-26T14:29:34.534Z,1.73
2019-03-26T14:32:04.883Z,1.30
2019-03-26T14:34:35.091Z,1.70
2019-03-26T14:37:05.684Z,1.80
2019-03-26T14:39:35.947Z,1.50
2019-03-26T14:42:06.336Z,1.33
2019-03-26T14:44:36.551Z,1.50
2019-03-26T14:47:06.818Z,1.83
2019-03-26T14:49:37.111Z,2.30
2019-03-26T14:52:07.395Z,1.67
2019-03-26T14:54:37.759Z,1.20
2019-03-26T14:57:08.113Z,1.90
2019-03-26T14:59:38.543Z,1.10
2019-03-26T15:02:08.925Z,2.03
2019-03-26T15:04:39.156Z,2.43
2019-03-26T15:07:10.537Z,1.30
2019-03-26T15:09:40.808Z,1.60
2019-03-26T15:12:11.127Z,1.30
2019-03-26T15:14:41.353Z,1.70
2019-03-26T15:17:11.600Z,1.70
2019-03-26T15:19:41.836Z,2.80
2019-03-26T15:22:12.126Z,1.63
2019-03-26T15:24:42.357Z,0.70
2019-03-26T15:27:12.584Z,1.53
2019-03-26T15:29:42.811Z,2.23
2019-03-26T15:32:13.045Z,2.00
2019-03-26T15:34:43.283Z,1.70
2019-03-26T15:37:13.538Z,1.30
2019-03-26T15:39:43.897Z,1.20
2019-03-26T15:42:14.178Z,1.57
2019-03-26T15:44:44.417Z,2.03
2019-03-26T15:47:15.999Z,1.17
2019-03-26T15:49:46.257Z,1.73
2019-03-26T15:52:16.505Z,1.67
2019-03-26T15:54:46.909Z,1.10
2019-03-26T15:57:17.108Z,1.70
2019-03-26T15:59:47.391Z,1.07
2019-03-26T16:02:17.594Z,1.10
2019-03-26T16:04:47.911Z,0.83
2019-03-26T16:07:18.141Z,1.10
2019-03-26T16:09:48.371Z,1.00
2019-03-26T16:12:18.740Z,1.20
2019-03-26T16:14:49.119Z,1.73
2019-03-26T16:17:19.343Z,1.50
2019-03-26T16:19:49.672Z,1.37
2019-03-26T16:22:19.947Z,1.00
2019-03-26T16:24:53.273Z,1.40
2019-03-26T16:27:22.095Z,1.40
2019-03-26T16:29:52.333Z,1.57
2019-03-26T16:32:22.694Z,1.13
2019-03-26T16:34:52.948Z,1.53
2019-03-26T16:37:23.267Z,1.40
2019-03-26T16:39:53.540Z,1.10
2019-03-26T16:42:23.838Z,1.20
2019-03-26T16:44:54.067Z,1.10
2019-03-26T16:47:27.555Z,1.47
2019-03-26T16:49:57.805Z,1.10
2019-03-26T16:52:28.036Z,2.33
2019-03-26T16:54:58.281Z,1.17
2019-03-26T16:57:28.545Z,1.27
2019-03-26T16:59:58.847Z,1.63
2019-03-26T17:02:29.189Z,1.53
2019-03-26T17:04:59.501Z,1.07
2019-03-26T17:07:29.733Z,2.33
2019-03-26T17:10:00.100Z,1.73
2019-03-26T17:12:30.580Z,1.40
2019-03-26T17:15:00.851Z,1.23
2019-03-26T17:17:31.221Z,1.30
2019-03-26T17:20:01.545Z,1.37
2019-03-26T17:22:31.953Z,1.77
2019-03-26T17:25:02.185Z,1.80
2019-03-26T17:27:32.459Z,1.20
2019-03-26T17:30:02.705Z,1.90
2019-03-26T17:32:32.937Z,1.97
2019-03-26T17:35:03.407Z,1.17
2019-03-26T17:37:34.763Z,1.43
2019-03-26T17:40:06.025Z,1.77
2019-03-26T17:42:36.363Z,1.80
2019-03-26T17:45:08.123Z,2.30
2019-03-26T17:47:38.377Z,1.43
2019-03-26T17:50:09.224Z,2.03
2019-03-26T17:52:39.501Z,2.87
2019-03-26T17:55:10.373Z,2.03
2019-03-26T17:57:40.739Z,2.10
2019-03-26T18:00:14.885Z,3.00
2019-03-26T18:02:45.413Z,2.80
2019-03-26T18:05:28.867Z,2.57
2019-03-26T18:07:59.245Z,1.97
2019-03-26T18:10:29.523Z,2.50
2019-03-26T18:12:59.821Z,2.17
2019-03-26T18:15:30.259Z,2.10
2019-03-26T18:18:00.558Z,1.67
2019-03-26T18:20:32.783Z,1.30
2019-03-26T18:23:02.831Z,2.07
2019-03-26T18:25:33.167Z,2.37
2019-03-26T18:28:03.541Z,1.97
2019-03-26T18:30:33.783Z,2.30
2019-03-26T18:33:04.060Z,2.30
2019-03-26T18:35:34.304Z,2.20
2019-03-26T18:38:04.597Z,2.27
2019-03-26T18:40:35.824Z,2.03
2019-03-26T18:43:06.087Z,3.10
2019-03-26T18:45:36.361Z,3.00
2019-03-26T18:48:06.661Z,2.10
2019-03-26T18:50:36.950Z,2.30
2019-03-26T18:53:07.159Z,2.37
2019-03-26T18:55:37.521Z,2.23
2019-03-26T18:58:07.939Z,1.80
2019-03-26T19:00:38.772Z,2.47
2019-03-26T19:03:09.359Z,1.80
2019-03-26T19:05:39.673Z,2.67
2019-03-26T19:08:10.037Z,2.87
2019-03-26T19:10:40.286Z,3.43
2019-03-26T19:13:19.431Z,3.20
2019-03-26T19:15:42.904Z,3.10
2019-03-26T19:18:13.297Z,2.73
2019-03-26T19:20:43.745Z,2.23
2019-03-26T19:23:14.076Z,2.10
2019-03-26T19:25:44.547Z,2.17
2019-03-26T19:28:14.933Z,2.50
2019-03-26T19:30:45.253Z,2.83
2019-03-26T19:33:16.062Z,2.43
2019-03-26T19:35:46.278Z,2.93
2019-03-26T19:38:16.527Z,3.30
2019-03-26T19:40:46.783Z,2.53
2019-03-26T19:43:17.056Z,2.10
2019-03-26T19:45:47.310Z,5.70
2019-03-26T19:48:17.647Z,3.53
2019-03-26T19:50:47.924Z,3.23
2019-03-26T19:53:18.260Z,2.90
2019-03-26T19:55:48.609Z,3.00
2019-03-26T19:58:18.825Z,1.67
2019-03-26T20:00:49.038Z,2.73
2019-03-26T20:03:19.408Z,3.10
2019-03-26T20:05:49.660Z,9.50
2019-03-26T20:08:19.923Z,2.60
2019-03-26T20:10:50.212Z,1.87
2019-03-26T20:13:24.560Z,1.37
2019-03-26T20:15:52.400Z,1.80
2019-03-26T20:18:23.147Z,2.30
2019-03-26T20:20:53.445Z,2.17
2019-03-26T20:23:23.883Z,2.07
2019-03-26T20:25:54.151Z,2.20
2019-03-26T20:28:26.699Z,2.60
2019-03-26T20:30:56.437Z,2.80
2019-03-26T20:33:26.919Z,2.37
2019-03-26T20:35:57.197Z,2.70
2019-03-26T20:38:27.541Z,2.60
2019-03-26T20:40:57.876Z,2.00
2019-03-26T20:43:37.143Z,2.50
2019-03-26T20:46:01.518Z,2.40
2019-03-26T20:48:32.019Z,2.30
2019-03-26T20:51:02.316Z,2.70
2019-03-26T20:53:32.575Z,2.30
2019-03-26T20:56:03.197Z,2.37
2019-03-26T20:58:33.617Z,2.30
2019-03-26T21:01:04.040Z,4.10
2019-03-26T21:03:34.522Z,2.33
2019-03-26T21:06:05.083Z,3.57
2019-03-26T21:08:35.443Z,2.20
2019-03-26T21:11:05.852Z,3.40
2019-03-26T21:13:36.152Z,3.30
2019-03-26T21:16:06.540Z,2.90
2019-03-26T21:18:36.837Z,2.70
2019-03-26T21:21:07.254Z,2.00
2019-03-26T21:23:37.645Z,4.40
2019-03-26T21:26:08.034Z,3.70
2019-03-26T21:28:38.342Z,2.80
2019-03-26T21:31:08.589Z,2.20
2019-03-26T21:33:38.856Z,2.70
2019-03-26T21:36:09.161Z,2.67
2019-03-26T21:38:39.506Z,2.80
2019-03-26T21:41:10.919Z,2.57
2019-03-26T21:43:41.184Z,3.33
2019-03-26T21:46:12.554Z,2.87
2019-03-26T21:48:42.839Z,3.27
2019-03-26T21:51:13.499Z,3.67
2019-03-26T21:53:43.748Z,2.97
2019-03-26T21:56:14.039Z,2.57
2019-03-26T21:58:45.370Z,1.90
2019-03-26T22:01:15.610Z,2.17
2019-03-26T22:03:45.926Z,2.30
2019-03-26T22:06:16.218Z,2.60
2019-03-26T22:08:46.462Z,3.47
2019-03-26T22:11:16.701Z,2.80
2019-03-26T22:13:46.946Z,2.80
2019-03-26T22:16:17.324Z,2.63
2019-03-26T22:18:47.661Z,3.07
2019-03-26T22:21:17.916Z,2.90
2019-03-26T22:23:49.220Z,2.80
2019-03-26T22:26:23.396Z,2.70
2019-03-26T22:28:52.915Z,3.50
2019-03-26T22:31:23.166Z,2.77
2019-03-26T22:33:53.446Z,3.00
2019-03-26T22:36:25.120Z,2.40
2019-03-26T22:38:55.377Z,3.10
2019-03-26T22:41:25.908Z,2.60
2019-03-26T22:43:56.246Z,3.00
2019-03-26T22:46:26.605Z,3.13
2019-03-26T22:48:56.870Z,2.57
2019-03-26T22:51:27.090Z,3.13
2019-03-26T22:53:59.102Z,4.27
2019-03-26T22:56:29.405Z,3.77
2019-03-26T22:58:59.896Z,4.20
2019-03-26T23:01:30.233Z,3.60
2019-03-26T23:04:00.560Z,3.27
2019-03-26T23:06:31.127Z,3.83
2019-03-26T23:09:01.387Z,4.00
2019-03-26T23:11:33.475Z,4.80
2019-03-26T23:14:03.805Z,3.63
2019-03-26T23:16:34.368Z,3.90
2019-03-26T23:19:04.668Z,3.00
2019-03-26T23:21:35.316Z,3.00
2019-03-26T23:24:05.885Z,4.40
2019-03-26T23:26:36.230Z,3.50
2019-03-26T23:29:08.120Z,2.77
2019-03-26T23:31:38.548Z,2.60
2019-03-26T23:34:08.914Z,3.60
2019-03-26T23:36:39.227Z,3.50
2019-03-26T23:39:09.440Z,3.23
2019-03-26T23:41:40.123Z,4.50
2019-03-26T23:44:10.479Z,3.90
2019-03-26T23:46:40.769Z,4.13
2019-03-26T23:49:11.966Z,4.57
2019-03-26T23:51:42.188Z,4.07
2019-03-26T23:54:12.550Z,1.87
2019-03-26T23:56:42.834Z,3.07
2019-03-26T23:59:13.124Z,3.37
